Pagrindinis puslapis
METAR-TAF:

METAR-TAF

Oro uostai :

Latina, Italija

platuma: 41-33N, ilguma: 012-54E, Aukštis: 25 m

Dabartinis oras

Ataskaita buvo paskelbta 46 minutes, ne 17:55 UTC
Vėjas 3 kt iš Šiaurės
Temperatūra 17°C
Drėgmė 88%
Slėgis 1015 hPa
Matomumas 10 km arba daugiau
Išsisklaidę debesys ne aukštis 3000 ft

METAR: LIRL 191755Z 36003KT 9999 SCT030 17/15 Q1015 RMK BKN MON INVIS VAR RAPID VIS MIN 9999 WIND THR12 00000KT WIND THR30 00000KT BLU

Laikas: 20:41 (18:41 UTC)

Prognozė

Ataskaita buvo paskelbta 4 valandos ir 41 minutes, ne 14:00 UTC
Prognozė galioja nuo 19 metu 15 UTC su 19 metu 24 UTC
Vėjas 8 kt iš Vakarų
Matomumas 10 km arba daugiau
Išsisklaidę debesys ne aukštis 2000 ft
Laikinai
nuo 19 metu 15 UTC su 19 metu 17 UTC
Matomumas: 5000 m
Mažai debesys ne aukštis 2000 ft, Liūtiniai kamuoliniai debesys.
Su prošvaistėmis ne aukštis 2000 ft
perkūnija, lietus

TAF: LIRL 191400Z 1915/1924 26008KT 9999 SCT020 TEMPO 1915/1917 5000 TSRA FEW020CB BKN020

Orai ataskaitas ir orų prognozės (METAR, TAF).

turimą stotys yra geltonos ir raudonos taškus žemėlapyje.

Perkelti pele per norėdami pamatyti stoties vardą.

Tada spustelėkite, norėdami matyti oro stebėjimo ir prognozės.

Norėdami pakeisti žemėlapį: spustelėkite ant žalios mygtukų su juodo kryžiaus žemyn,; žalią mygtuką su brūkšneliu, jei norite nutolinti; arba žalių rodyklių gretimoms žemėlapius.


METAR-TAF: